Terminal Aerodrome Forecast
Issued by NWS

Home | Current Version | Previous Version | Text Only | Print | Product List | Glossary On
Versions: 1 2 3 4 5 6 7 8 9 10 11 12 13 14
000
FTUS45 KRIW 230520
TAFWRL
TAF
KWRL 230520Z 2306/2406 34014G22KT P6SM VCSH SCT060
     FM231200 34011KT P6SM FEW080
     FM232100 VRB06KT P6SM FEW070=

USA.gov is the U.S. government's official web portal to all federal, state and local government web resources and services.